PWSweather.com
Personal Weather Stations
Station Observations
KTXROWLE6
Ravens Nest, Rowlett, TX 75089

Ravens NestRowlett, TX 75089

Lat: 32.93105, Lon: -96.57368

Elevation: 556

Station Type: Davis Vantage Pro2 6152

http://rowlett.ws

Latest ConditionsUpdated 5:25:05 PM CST Tuesday, Jan 24, 2017
Currently Today's Max Today's Min Today's Average
Temperature 75.9°F24.4°C 76.5°F24.7°C 50.6°F10.3°C 61.8°F16.6°C
Dew Point 56.4°F13.6°C 57.7°F14.3°C 39.5°F4.2°C 47.2°F8.4°C
Winds 7.0 mph SW11.3 kmh SW 17.0 mph SW27.4 kmh SW - 3.8 mph 6.1 kmh
Wind Gusts 10.0 mph16.1 kmh 21.0 mph33.8 kmh - -
Humidity 51% 73% 46% 60%
Pressure 29.59 in1002.0 mb 29.80 in1009.1 mb 29.59 in1002.0 mb -
Hour Temp Dew Point Humidity Winds Wind Gusts Pressure Precip Precip Rate Daily Precip Total
05:25 PM 75.9°F24.4°C 56.4°F13.6°C 51% 7.0 mph SW11.3 kmh SW 10.0 mph16.1 kmh 29.59 in1002.0 mb 0.00 in0.0 mm 0.00 in0.0 mm 0.00 in0.0 mm
05:20 PM 75.8°F24.3°C 56.3°F13.5°C 51% 4.0 mph SSW6.4 kmh SSW 10.0 mph16.1 kmh 29.59 in1002.0 mb 0.00 in0.0 mm 0.00 in0.0 mm 0.00 in0.0 mm
05:15 PM 75.6°F24.2°C 56.7°F13.7°C 52% 2.0 mph SSW3.2 kmh SSW 10.0 mph16.1 kmh 29.59 in1002.0 mb 0.00 in0.0 mm 0.00 in0.0 mm 0.00 in0.0 mm
05:10 PM 75.7°F24.3°C 57.3°F14.1°C 53% 2.0 mph SE3.2 kmh SE 3.0 mph4.8 kmh 29.59 in1002.0 mb 0.00 in0.0 mm 0.00 in0.0 mm 0.00 in0.0 mm
05:05 PM 75.9°F24.4°C 57.5°F14.2°C 53% Calm Calm 2.0 mph3.2 kmh 29.59 in1002.0 mb 0.00 in0.0 mm 0.00 in0.0 mm 0.00 in0.0 mm
05:00 PM 76.1°F24.5°C 57.7°F14.3°C 53% Calm Calm 4.0 mph6.4 kmh 29.59 in1002.0 mb 0.00 in0.0 mm 0.00 in0.0 mm 0.00 in0.0 mm
04:55 PM 76.2°F24.6°C 57.2°F14.0°C 52% Calm Calm 5.0 mph8.0 kmh 29.59 in1002.0 mb 0.00 in0.0 mm 0.00 in0.0 mm 0.00 in0.0 mm
04:50 PM 76.2°F24.6°C 57.2°F14.0°C 52% 2.0 mph SE3.2 kmh SE 6.0 mph9.7 kmh 29.59 in1002.0 mb 0.00 in0.0 mm 0.00 in0.0 mm 0.00 in0.0 mm
04:45 PM 76.2°F24.6°C 57.2°F14.0°C 52% 1.0 mph SE1.6 kmh SE 5.0 mph8.0 kmh 29.59 in1002.0 mb 0.00 in0.0 mm 0.00 in0.0 mm 0.00 in0.0 mm
04:40 PM 76.3°F24.6°C 57.3°F14.1°C 52% 1.0 mph SSE1.6 kmh SSE 5.0 mph8.0 kmh 29.59 in1002.0 mb 0.00 in0.0 mm 0.00 in0.0 mm 0.00 in0.0 mm
04:35 PM 76.3°F24.6°C 57.3°F14.1°C 52% Calm Calm 8.0 mph12.9 kmh 29.59 in1002.0 mb 0.00 in0.0 mm 0.00 in0.0 mm 0.00 in0.0 mm
04:30 PM 76.3°F24.6°C 57.3°F14.1°C 52% 1.0 mph SSE1.6 kmh SSE 6.0 mph9.7 kmh 29.59 in1002.0 mb 0.00 in0.0 mm 0.00 in0.0 mm 0.00 in0.0 mm
04:25 PM 76.3°F24.6°C 57.3°F14.1°C 52% Calm Calm 5.0 mph8.0 kmh 29.59 in1002.0 mb 0.00 in0.0 mm 0.00 in0.0 mm 0.00 in0.0 mm
04:20 PM 76.3°F24.6°C 57.3°F14.1°C 52% 2.0 mph SE3.2 kmh SE 11.0 mph17.7 kmh 29.59 in1002.0 mb 0.00 in0.0 mm 0.00 in0.0 mm 0.00 in0.0 mm
04:15 PM 76.3°F24.6°C 57.3°F14.1°C 52% 5.0 mph ESE8.0 kmh ESE 14.0 mph22.5 kmh 29.59 in1002.0 mb 0.00 in0.0 mm 0.00 in0.0 mm 0.00 in0.0 mm
04:10 PM 76.3°F24.6°C 57.3°F14.1°C 52% Calm Calm 10.0 mph16.1 kmh 29.60 in1002.4 mb 0.00 in0.0 mm 0.00 in0.0 mm 0.00 in0.0 mm
04:05 PM 76.3°F24.6°C 57.3°F14.1°C 52% 4.0 mph SSE6.4 kmh SSE 12.0 mph19.3 kmh 29.60 in1002.4 mb 0.00 in0.0 mm 0.00 in0.0 mm 0.00 in0.0 mm
04:00 PM 76.2°F24.6°C 57.2°F14.0°C 52% 3.0 mph SW4.8 kmh SW 16.0 mph25.7 kmh 29.60 in1002.4 mb 0.00 in0.0 mm 0.00 in0.0 mm 0.00 in0.0 mm
03:55 PM 76.1°F24.5°C 57.1°F13.9°C 52% 6.0 mph SW9.7 kmh SW 11.0 mph17.7 kmh 29.60 in1002.4 mb 0.00 in0.0 mm 0.00 in0.0 mm 0.00 in0.0 mm
03:50 PM 76.1°F24.5°C 57.1°F13.9°C 52% 4.0 mph SW6.4 kmh SW 12.0 mph19.3 kmh 29.60 in1002.4 mb 0.00 in0.0 mm 0.00 in0.0 mm 0.00 in0.0 mm
03:45 PM 76.0°F24.4°C 57.6°F14.2°C 53% 2.0 mph SE3.2 kmh SE 12.0 mph19.3 kmh 29.60 in1002.4 mb 0.00 in0.0 mm 0.00 in0.0 mm 0.00 in0.0 mm
03:40 PM 76.0°F24.4°C 57.6°F14.2°C 53% 3.0 mph SE4.8 kmh SE 11.0 mph17.7 kmh 29.60 in1002.4 mb 0.00 in0.0 mm 0.00 in0.0 mm 0.00 in0.0 mm
03:35 PM 75.9°F24.4°C 57.5°F14.2°C 53% 7.0 mph SW11.3 kmh SW 10.0 mph16.1 kmh 29.60 in1002.4 mb 0.00 in0.0 mm 0.00 in0.0 mm 0.00 in0.0 mm
03:30 PM 75.7°F24.3°C 57.3°F14.1°C 53% 4.0 mph SSE6.4 kmh SSE 10.0 mph16.1 kmh 29.60 in1002.4 mb 0.00 in0.0 mm 0.00 in0.0 mm 0.00 in0.0 mm
03:25 PM 75.6°F24.2°C 57.2°F14.0°C 53% 9.0 mph SW14.5 kmh SW 13.0 mph20.9 kmh 29.60 in1002.4 mb 0.00 in0.0 mm 0.00 in0.0 mm 0.00 in0.0 mm
03:20 PM 75.6°F24.2°C 57.2°F14.0°C 53% 2.0 mph ESE3.2 kmh ESE 19.0 mph30.6 kmh 29.60 in1002.4 mb 0.00 in0.0 mm 0.00 in0.0 mm 0.00 in0.0 mm
03:15 PM 75.7°F24.3°C 56.8°F13.8°C 52% 4.0 mph S6.4 kmh S 16.0 mph25.7 kmh 29.60 in1002.4 mb 0.00 in0.0 mm 0.00 in0.0 mm 0.00 in0.0 mm
03:10 PM 75.8°F24.3°C 56.8°F13.8°C 52% 3.0 mph S4.8 kmh S 15.0 mph24.1 kmh 29.60 in1002.4 mb 0.00 in0.0 mm 0.00 in0.0 mm 0.00 in0.0 mm
03:05 PM 76.0°F24.4°C 56.5°F13.6°C 51% 7.0 mph SSW11.3 kmh SSW 16.0 mph25.7 kmh 29.61 in1002.7 mb 0.00 in0.0 mm 0.00 in0.0 mm 0.00 in0.0 mm
03:00 PM 75.8°F24.3°C 56.3°F13.5°C 51% 6.0 mph SSW9.7 kmh SSW 14.0 mph22.5 kmh 29.61 in1002.7 mb 0.00 in0.0 mm 0.00 in0.0 mm 0.00 in0.0 mm
02:55 PM 75.8°F24.3°C 56.8°F13.8°C 52% 6.0 mph SE9.7 kmh SE 14.0 mph22.5 kmh 29.61 in1002.7 mb 0.00 in0.0 mm 0.00 in0.0 mm 0.00 in0.0 mm
02:50 PM 75.9°F24.4°C 56.4°F13.6°C 51% 2.0 mph SE3.2 kmh SE 9.0 mph14.5 kmh 29.61 in1002.7 mb 0.00 in0.0 mm 0.00 in0.0 mm 0.00 in0.0 mm
02:45 PM 76.1°F24.5°C 56.0°F13.3°C 50% 9.0 mph SE14.5 kmh SE 13.0 mph20.9 kmh 29.61 in1002.7 mb 0.00 in0.0 mm 0.00 in0.0 mm 0.00 in0.0 mm
02:40 PM 76.3°F24.6°C 56.2°F13.4°C 50% 7.0 mph SSW11.3 kmh SSW 12.0 mph19.3 kmh 29.61 in1002.7 mb 0.00 in0.0 mm 0.00 in0.0 mm 0.00 in0.0 mm
02:35 PM 76.4°F24.7°C 55.8°F13.2°C 49% 7.0 mph ESE11.3 kmh ESE 11.0 mph17.7 kmh 29.62 in1003.0 mb 0.00 in0.0 mm 0.00 in0.0 mm 0.00 in0.0 mm
02:30 PM 76.4°F24.7°C 55.8°F13.2°C 49% 3.0 mph SW4.8 kmh SW 13.0 mph20.9 kmh 29.62 in1003.0 mb 0.00 in0.0 mm 0.00 in0.0 mm 0.00 in0.0 mm
02:25 PM 76.5°F24.7°C 55.8°F13.2°C 49% 2.0 mph S3.2 kmh S 12.0 mph19.3 kmh 29.62 in1003.0 mb 0.00 in0.0 mm 0.00 in0.0 mm 0.00 in0.0 mm
02:20 PM 76.3°F24.6°C 56.2°F13.4°C 50% 2.0 mph SE3.2 kmh SE 12.0 mph19.3 kmh 29.62 in1003.0 mb 0.00 in0.0 mm 0.00 in0.0 mm 0.00 in0.0 mm
02:15 PM 76.2°F24.6°C 55.6°F13.1°C 49% 3.0 mph S4.8 kmh S 17.0 mph27.4 kmh 29.62 in1003.0 mb 0.00 in0.0 mm 0.00 in0.0 mm 0.00 in0.0 mm
02:10 PM 76.3°F24.6°C 55.7°F13.2°C 49% 4.0 mph SSW6.4 kmh SSW 13.0 mph20.9 kmh 29.62 in1003.0 mb 0.00 in0.0 mm 0.00 in0.0 mm 0.00 in0.0 mm
02:05 PM 76.1°F24.5°C 55.5°F13.1°C 49% 2.0 mph S3.2 kmh S 17.0 mph27.4 kmh 29.62 in1003.0 mb 0.00 in0.0 mm 0.00 in0.0 mm 0.00 in0.0 mm
02:00 PM 76.1°F24.5°C 55.5°F13.1°C 49% 6.0 mph SW9.7 kmh SW 14.0 mph22.5 kmh 29.62 in1003.0 mb 0.00 in0.0 mm 0.00 in0.0 mm 0.00 in0.0 mm
01:55 PM 76.0°F24.4°C 55.4°F13.0°C 49% 5.0 mph E8.0 kmh E 16.0 mph25.7 kmh 29.62 in1003.0 mb 0.00 in0.0 mm 0.00 in0.0 mm 0.00 in0.0 mm
01:50 PM 76.0°F24.4°C 54.8°F12.7°C 48% 10.0 mph SSW16.1 kmh SSW 14.0 mph22.5 kmh 29.62 in1003.0 mb 0.00 in0.0 mm 0.00 in0.0 mm 0.00 in0.0 mm
01:45 PM 75.8°F24.3°C 55.2°F12.9°C 49% 9.0 mph SW14.5 kmh SW 13.0 mph20.9 kmh 29.62 in1003.0 mb 0.00 in0.0 mm 0.00 in0.0 mm 0.00 in0.0 mm
01:40 PM 75.8°F24.3°C 54.6°F12.6°C 48% 8.0 mph SW12.9 kmh SW 14.0 mph22.5 kmh 29.62 in1003.0 mb 0.00 in0.0 mm 0.00 in0.0 mm 0.00 in0.0 mm
01:35 PM 75.6°F24.2°C 55.0°F12.8°C 49% 10.0 mph WSW16.1 kmh WSW 18.0 mph29.0 kmh 29.63 in1003.4 mb 0.00 in0.0 mm 0.00 in0.0 mm 0.00 in0.0 mm
01:30 PM 75.4°F24.1°C 54.3°F12.4°C 48% 9.0 mph SW14.5 kmh SW 16.0 mph25.7 kmh 29.63 in1003.4 mb 0.00 in0.0 mm 0.00 in0.0 mm 0.00 in0.0 mm
01:25 PM 75.3°F24.1°C 54.2°F12.3°C 48% 9.0 mph SSW14.5 kmh SSW 19.0 mph30.6 kmh 29.63 in1003.4 mb 0.00 in0.0 mm 0.00 in0.0 mm 0.00 in0.0 mm
01:20 PM 75.3°F24.1°C 54.2°F12.3°C 48% 8.0 mph S12.9 kmh S 19.0 mph30.6 kmh 29.63 in1003.4 mb 0.00 in0.0 mm 0.00 in0.0 mm 0.00 in0.0 mm
01:15 PM 75.4°F24.1°C 53.7°F12.1°C 47% 6.0 mph SSW9.7 kmh SSW 21.0 mph33.8 kmh 29.64 in1003.7 mb 0.00 in0.0 mm 0.00 in0.0 mm 0.00 in0.0 mm
01:10 PM 75.2°F24.0°C 53.5°F11.9°C 47% 4.0 mph S6.4 kmh S 17.0 mph27.4 kmh 29.64 in1003.7 mb 0.00 in0.0 mm 0.00 in0.0 mm 0.00 in0.0 mm
01:05 PM 75.3°F24.1°C 53.0°F11.7°C 46% 6.0 mph SW9.7 kmh SW 17.0 mph27.4 kmh 29.64 in1003.7 mb 0.00 in0.0 mm 0.00 in0.0 mm 0.00 in0.0 mm
01:00 PM 75.5°F24.2°C 53.8°F12.1°C 47% 3.0 mph S4.8 kmh S 18.0 mph29.0 kmh 29.64 in1003.7 mb 0.00 in0.0 mm 0.00 in0.0 mm 0.00 in0.0 mm
12:55 PM 75.1°F23.9°C 53.4°F11.9°C 47% 14.0 mph SW22.5 kmh SW 17.0 mph27.4 kmh 29.65 in1004.1 mb 0.00 in0.0 mm 0.00 in0.0 mm 0.00 in0.0 mm
12:50 PM 74.4°F23.6°C 53.4°F11.9°C 48% 2.0 mph S3.2 kmh S 15.0 mph24.1 kmh 29.65 in1004.1 mb 0.00 in0.0 mm 0.00 in0.0 mm 0.00 in0.0 mm
12:45 PM 74.1°F23.4°C 52.5°F11.4°C 47% 11.0 mph SSW17.7 kmh SSW 19.0 mph30.6 kmh 29.65 in1004.1 mb 0.00 in0.0 mm 0.00 in0.0 mm 0.00 in0.0 mm
12:40 PM 74.4°F23.6°C 52.8°F11.6°C 47% 10.0 mph SSW16.1 kmh SSW 17.0 mph27.4 kmh 29.65 in1004.1 mb 0.00 in0.0 mm 0.00 in0.0 mm 0.00 in0.0 mm
12:35 PM 74.5°F23.6°C 52.9°F11.6°C 47% 6.0 mph SW9.7 kmh SW 16.0 mph25.7 kmh 29.66 in1004.4 mb 0.00 in0.0 mm 0.00 in0.0 mm 0.00 in0.0 mm
12:30 PM 74.2°F23.4°C 52.6°F11.4°C 47% 11.0 mph SSW17.7 kmh SSW 18.0 mph29.0 kmh 29.66 in1004.4 mb 0.00 in0.0 mm 0.00 in0.0 mm 0.00 in0.0 mm
12:25 PM 73.8°F23.2°C 52.8°F11.6°C 48% 6.0 mph SW9.7 kmh SW 14.0 mph22.5 kmh 29.67 in1004.7 mb 0.00 in0.0 mm 0.00 in0.0 mm 0.00 in0.0 mm
12:20 PM 73.2°F22.9°C 52.8°F11.6°C 49% 3.0 mph SE4.8 kmh SE 17.0 mph27.4 kmh 29.67 in1004.7 mb 0.00 in0.0 mm 0.00 in0.0 mm 0.00 in0.0 mm
12:15 PM 72.7°F22.6°C 52.9°F11.6°C 50% 3.0 mph SSE4.8 kmh SSE 17.0 mph27.4 kmh 29.67 in1004.7 mb 0.00 in0.0 mm 0.00 in0.0 mm 0.00 in0.0 mm
12:10 PM 72.7°F22.6°C 51.8°F11.0°C 48% 6.0 mph SSE9.7 kmh SSE 14.0 mph22.5 kmh 29.67 in1004.7 mb 0.00 in0.0 mm 0.00 in0.0 mm 0.00 in0.0 mm
12:05 PM 72.6°F22.6°C 51.7°F10.9°C 48% 12.0 mph SW19.3 kmh SW 20.0 mph32.2 kmh 29.68 in1005.1 mb 0.00 in0.0 mm 0.00 in0.0 mm 0.00 in0.0 mm
12:00 PM 72.0°F22.2°C 51.7°F10.9°C 49% 2.0 mph S3.2 kmh S 21.0 mph33.8 kmh 29.68 in1005.1 mb 0.00 in0.0 mm 0.00 in0.0 mm 0.00 in0.0 mm
11:55 AM 72.8°F22.7°C 51.9°F11.1°C 48% 17.0 mph SW27.4 kmh SW 17.0 mph27.4 kmh 29.69 in1005.4 mb 0.00 in0.0 mm 0.00 in0.0 mm 0.00 in0.0 mm
11:50 AM 72.7°F22.6°C 52.9°F11.6°C 50% 7.0 mph SE11.3 kmh SE 11.0 mph17.7 kmh 29.69 in1005.4 mb 0.00 in0.0 mm 0.00 in0.0 mm 0.00 in0.0 mm
11:45 AM 72.6°F22.6°C 52.8°F11.6°C 50% 11.0 mph SSW17.7 kmh SSW 13.0 mph20.9 kmh 29.69 in1005.4 mb 0.00 in0.0 mm 0.00 in0.0 mm 0.00 in0.0 mm
11:40 AM 72.1°F22.3°C 52.9°F11.6°C 51% 7.0 mph SW11.3 kmh SW 14.0 mph22.5 kmh 29.70 in1005.8 mb 0.00 in0.0 mm 0.00 in0.0 mm 0.00 in0.0 mm
11:35 AM 71.2°F21.8°C 52.1°F11.2°C 51% 3.0 mph S4.8 kmh S 16.0 mph25.7 kmh 29.70 in1005.8 mb 0.00 in0.0 mm 0.00 in0.0 mm 0.00 in0.0 mm
11:30 AM 70.7°F21.5°C 51.6°F10.9°C 51% 4.0 mph S6.4 kmh S 17.0 mph27.4 kmh 29.70 in1005.8 mb 0.00 in0.0 mm 0.00 in0.0 mm 0.00 in0.0 mm
11:25 AM 70.2°F21.2°C 51.7°F10.9°C 52% 9.0 mph SW14.5 kmh SW 18.0 mph29.0 kmh 29.70 in1005.8 mb 0.00 in0.0 mm 0.00 in0.0 mm 0.00 in0.0 mm
11:20 AM 70.0°F21.1°C 52.0°F11.1°C 53% 6.0 mph SW9.7 kmh SW 17.0 mph27.4 kmh 29.71 in1006.1 mb 0.00 in0.0 mm 0.00 in0.0 mm 0.00 in0.0 mm
11:15 AM 69.7°F20.9°C 51.2°F10.7°C 52% 10.0 mph SE16.1 kmh SE 17.0 mph27.4 kmh 29.71 in1006.1 mb 0.00 in0.0 mm 0.00 in0.0 mm 0.00 in0.0 mm
11:10 AM 69.5°F20.8°C 51.6°F10.9°C 53% 11.0 mph SW17.7 kmh SW 18.0 mph29.0 kmh 29.71 in1006.1 mb 0.00 in0.0 mm 0.00 in0.0 mm 0.00 in0.0 mm
11:05 AM 69.4°F20.8°C 50.9°F10.5°C 52% 9.0 mph S14.5 kmh S 18.0 mph29.0 kmh 29.71 in1006.1 mb 0.00 in0.0 mm 0.00 in0.0 mm 0.00 in0.0 mm
11:00 AM 69.1°F20.6°C 51.7°F10.9°C 54% 6.0 mph SW9.7 kmh SW 14.0 mph22.5 kmh 29.71 in1006.1 mb 0.00 in0.0 mm 0.00 in0.0 mm 0.00 in0.0 mm
10:55 AM 68.7°F20.4°C 51.3°F10.7°C 54% 9.0 mph SSW14.5 kmh SSW 12.0 mph19.3 kmh 29.71 in1006.1 mb 0.00 in0.0 mm 0.00 in0.0 mm 0.00 in0.0 mm
10:50 AM 68.1°F20.1°C 51.8°F11.0°C 56% 6.0 mph SSW9.7 kmh SSW 14.0 mph22.5 kmh 29.71 in1006.1 mb 0.00 in0.0 mm 0.00 in0.0 mm 0.00 in0.0 mm
10:45 AM 67.4°F19.7°C 51.6°F10.9°C 57% 7.0 mph SE11.3 kmh SE 13.0 mph20.9 kmh 29.71 in1006.1 mb 0.00 in0.0 mm 0.00 in0.0 mm 0.00 in0.0 mm
10:40 AM 66.8°F19.3°C 51.0°F10.6°C 57% 9.0 mph S14.5 kmh S 13.0 mph20.9 kmh 29.71 in1006.1 mb 0.00 in0.0 mm 0.00 in0.0 mm 0.00 in0.0 mm
10:35 AM 66.1°F18.9°C 50.8°F10.4°C 58% 2.0 mph S3.2 kmh S 12.0 mph19.3 kmh 29.71 in1006.1 mb 0.00 in0.0 mm 0.00 in0.0 mm 0.00 in0.0 mm
10:30 AM 65.7°F18.7°C 50.5°F10.3°C 58% 9.0 mph SW14.5 kmh SW 13.0 mph20.9 kmh 29.72 in1006.4 mb 0.00 in0.0 mm 0.00 in0.0 mm 0.00 in0.0 mm
10:25 AM 65.5°F18.6°C 50.3°F10.2°C 58% 6.0 mph SW9.7 kmh SW 15.0 mph24.1 kmh 29.71 in1006.1 mb 0.00 in0.0 mm 0.00 in0.0 mm 0.00 in0.0 mm
10:20 AM 65.2°F18.4°C 50.0°F10.0°C 58% 5.0 mph S8.0 kmh S 12.0 mph19.3 kmh 29.72 in1006.4 mb 0.00 in0.0 mm 0.00 in0.0 mm 0.00 in0.0 mm
10:15 AM 64.6°F18.1°C 49.9°F9.9°C 59% 10.0 mph SE16.1 kmh SE 12.0 mph19.3 kmh 29.72 in1006.4 mb 0.00 in0.0 mm 0.00 in0.0 mm 0.00 in0.0 mm
10:10 AM 64.1°F17.8°C 49.4°F9.7°C 59% 6.0 mph SE9.7 kmh SE 11.0 mph17.7 kmh 29.72 in1006.4 mb 0.00 in0.0 mm 0.00 in0.0 mm 0.00 in0.0 mm
10:05 AM 63.6°F17.6°C 49.0°F9.4°C 59% 5.0 mph SE8.0 kmh SE 13.0 mph20.9 kmh 29.72 in1006.4 mb 0.00 in0.0 mm 0.00 in0.0 mm 0.00 in0.0 mm
10:00 AM 63.0°F17.2°C 48.4°F9.1°C 59% 5.0 mph SSW8.0 kmh SSW 12.0 mph19.3 kmh 29.72 in1006.4 mb 0.00 in0.0 mm 0.00 in0.0 mm 0.00 in0.0 mm
09:55 AM 62.3°F16.8°C 47.7°F8.7°C 59% 1.0 mph SSE1.6 kmh SSE 9.0 mph14.5 kmh 29.72 in1006.4 mb 0.00 in0.0 mm 0.00 in0.0 mm 0.00 in0.0 mm
09:50 AM 61.7°F16.5°C 47.2°F8.4°C 59% 1.0 mph ESE1.6 kmh ESE 7.0 mph11.3 kmh 29.72 in1006.4 mb 0.00 in0.0 mm 0.00 in0.0 mm 0.00 in0.0 mm
09:45 AM 61.1°F16.2°C 47.1°F8.4°C 60% 3.0 mph SSE4.8 kmh SSE 8.0 mph12.9 kmh 29.72 in1006.4 mb 0.00 in0.0 mm 0.00 in0.0 mm 0.00 in0.0 mm
09:40 AM 60.5°F15.8°C 46.5°F8.1°C 60% 3.0 mph SE4.8 kmh SE 9.0 mph14.5 kmh 29.72 in1006.4 mb 0.00 in0.0 mm 0.00 in0.0 mm 0.00 in0.0 mm
09:35 AM 59.8°F15.4°C 46.3°F7.9°C 61% 3.0 mph ESE4.8 kmh ESE 9.0 mph14.5 kmh 29.72 in1006.4 mb 0.00 in0.0 mm 0.00 in0.0 mm 0.00 in0.0 mm
09:30 AM 59.3°F15.2°C 45.8°F7.7°C 61% 5.0 mph ESE8.0 kmh ESE 9.0 mph14.5 kmh 29.72 in1006.4 mb 0.00 in0.0 mm 0.00 in0.0 mm 0.00 in0.0 mm
09:25 AM 58.5°F14.7°C 45.0°F7.2°C 61% 2.0 mph SE3.2 kmh SE 13.0 mph20.9 kmh 29.72 in1006.4 mb 0.00 in0.0 mm 0.00 in0.0 mm 0.00 in0.0 mm
09:20 AM 57.8°F14.3°C 44.8°F7.1°C 62% 4.0 mph SE6.4 kmh SE 12.0 mph19.3 kmh 29.72 in1006.4 mb 0.00 in0.0 mm 0.00 in0.0 mm 0.00 in0.0 mm
09:15 AM 57.3°F14.1°C 44.3°F6.8°C 62% 3.0 mph SE4.8 kmh SE 9.0 mph14.5 kmh 29.73 in1006.8 mb 0.00 in0.0 mm 0.00 in0.0 mm 0.00 in0.0 mm
09:10 AM 56.6°F13.7°C 44.1°F6.7°C 63% 2.0 mph SE3.2 kmh SE 11.0 mph17.7 kmh 29.73 in1006.8 mb 0.00 in0.0 mm 0.00 in0.0 mm 0.00 in0.0 mm
09:05 AM 56.2°F13.4°C 44.1°F6.7°C 64% 5.0 mph E8.0 kmh E 8.0 mph12.9 kmh 29.73 in1006.8 mb 0.00 in0.0 mm 0.00 in0.0 mm 0.00 in0.0 mm
09:00 AM 55.7°F13.2°C 43.7°F6.5°C 64% 4.0 mph ESE6.4 kmh ESE 9.0 mph14.5 kmh 29.73 in1006.8 mb 0.00 in0.0 mm 0.00 in0.0 mm 0.00 in0.0 mm
08:55 AM 55.4°F13.0°C 43.8°F6.6°C 65% 5.0 mph SE8.0 kmh SE 11.0 mph17.7 kmh 29.73 in1006.8 mb 0.00 in0.0 mm 0.00 in0.0 mm 0.00 in0.0 mm
08:50 AM 55.2°F12.9°C 43.6°F6.4°C 65% 7.0 mph SE11.3 kmh SE 8.0 mph12.9 kmh 29.73 in1006.8 mb 0.00 in0.0 mm 0.00 in0.0 mm 0.00 in0.0 mm
08:45 AM 55.0°F12.8°C 43.8°F6.6°C 66% 3.0 mph SE4.8 kmh SE 10.0 mph16.1 kmh 29.73 in1006.8 mb 0.00 in0.0 mm 0.00 in0.0 mm 0.00 in0.0 mm
08:40 AM 54.5°F12.5°C 43.3°F6.3°C 66% 2.0 mph SSW3.2 kmh SSW 9.0 mph14.5 kmh 29.73 in1006.8 mb 0.00 in0.0 mm 0.00 in0.0 mm 0.00 in0.0 mm
08:35 AM 54.0°F12.2°C 43.2°F6.2°C 67% 6.0 mph SE9.7 kmh SE 11.0 mph17.7 kmh 29.73 in1006.8 mb 0.00 in0.0 mm 0.00 in0.0 mm 0.00 in0.0 mm
08:30 AM 53.6°F12.0°C 43.6°F6.4°C 69% 4.0 mph SE6.4 kmh SE 7.0 mph11.3 kmh 29.74 in1007.1 mb 0.00 in0.0 mm 0.00 in0.0 mm 0.00 in0.0 mm
08:25 AM 53.2°F11.8°C 43.2°F6.2°C 69% 3.0 mph SE4.8 kmh SE 7.0 mph11.3 kmh 29.74 in1007.1 mb 0.00 in0.0 mm 0.00 in0.0 mm 0.00 in0.0 mm
08:20 AM 53.0°F11.7°C 43.4°F6.3°C 70% 5.0 mph ESE8.0 kmh ESE 11.0 mph17.7 kmh 29.74 in1007.1 mb 0.00 in0.0 mm 0.00 in0.0 mm 0.00 in0.0 mm
08:15 AM 52.5°F11.4°C 43.3°F6.3°C 71% 8.0 mph SE12.9 kmh SE 8.0 mph12.9 kmh 29.73 in1006.8 mb 0.00 in0.0 mm 0.00 in0.0 mm 0.00 in0.0 mm
08:10 AM 52.2°F11.2°C 43.4°F6.3°C 72% 5.0 mph SE8.0 kmh SE 8.0 mph12.9 kmh 29.73 in1006.8 mb 0.00 in0.0 mm 0.00 in0.0 mm 0.00 in0.0 mm
08:05 AM 51.9°F11.1°C 43.1°F6.2°C 72% 3.0 mph ESE4.8 kmh ESE 8.0 mph12.9 kmh 29.73 in1006.8 mb 0.00 in0.0 mm 0.00 in0.0 mm 0.00 in0.0 mm
08:00 AM 51.5°F10.8°C 43.1°F6.2°C 73% 2.0 mph SE3.2 kmh SE 6.0 mph9.7 kmh 29.73 in1006.8 mb 0.00 in0.0 mm 0.00 in0.0 mm 0.00 in0.0 mm
07:55 AM 51.1°F10.6°C 42.7°F5.9°C 73% 3.0 mph SE4.8 kmh SE 10.0 mph16.1 kmh 29.73 in1006.8 mb 0.00 in0.0 mm 0.00 in0.0 mm 0.00 in0.0 mm
07:50 AM 50.9°F10.5°C 42.5°F5.8°C 73% 4.0 mph SE6.4 kmh SE 10.0 mph16.1 kmh 29.73 in1006.8 mb 0.00 in0.0 mm 0.00 in0.0 mm 0.00 in0.0 mm
07:45 AM 50.8°F10.4°C 42.4°F5.8°C 73% 3.0 mph ESE4.8 kmh ESE 9.0 mph14.5 kmh 29.74 in1007.1 mb 0.00 in0.0 mm 0.00 in0.0 mm 0.00 in0.0 mm
07:40 AM 50.6°F10.3°C 42.2°F5.7°C 73% 3.0 mph SE4.8 kmh SE 5.0 mph8.0 kmh 29.74 in1007.1 mb 0.00 in0.0 mm 0.00 in0.0 mm 0.00 in0.0 mm
07:35 AM 50.6°F10.3°C 42.2°F5.7°C 73% 2.0 mph SE3.2 kmh SE 8.0 mph12.9 kmh 29.74 in1007.1 mb 0.00 in0.0 mm 0.00 in0.0 mm 0.00 in0.0 mm
07:30 AM 50.6°F10.3°C 42.2°F5.7°C 73% 2.0 mph SE3.2 kmh SE 8.0 mph12.9 kmh 29.74 in1007.1 mb 0.00 in0.0 mm 0.00 in0.0 mm 0.00 in0.0 mm
07:25 AM 50.7°F10.4°C 42.3°F5.7°C 73% 3.0 mph SE4.8 kmh SE 5.0 mph8.0 kmh 29.74 in1007.1 mb 0.00 in0.0 mm 0.00 in0.0 mm 0.00 in0.0 mm
07:20 AM 50.7°F10.4°C 42.3°F5.7°C 73% 3.0 mph SE4.8 kmh SE 8.0 mph12.9 kmh 29.74 in1007.1 mb 0.00 in0.0 mm 0.00 in0.0 mm 0.00 in0.0 mm
07:15 AM 50.8°F10.4°C 42.1°F5.6°C 72% 1.0 mph SE1.6 kmh SE 7.0 mph11.3 kmh 29.74 in1007.1 mb 0.00 in0.0 mm 0.00 in0.0 mm 0.00 in0.0 mm
07:10 AM 50.9°F10.5°C 42.1°F5.6°C 72% 2.0 mph SE3.2 kmh SE 6.0 mph9.7 kmh 29.73 in1006.8 mb 0.00 in0.0 mm 0.00 in0.0 mm 0.00 in0.0 mm
07:05 AM 51.0°F10.6°C 42.2°F5.7°C 72% 2.0 mph SE3.2 kmh SE 7.0 mph11.3 kmh 29.73 in1006.8 mb 0.00 in0.0 mm 0.00 in0.0 mm 0.00 in0.0 mm
07:00 AM 51.0°F10.6°C 42.2°F5.7°C 72% 4.0 mph SE6.4 kmh SE 5.0 mph8.0 kmh 29.73 in1006.8 mb 0.00 in0.0 mm 0.00 in0.0 mm 0.00 in0.0 mm
06:55 AM 51.1°F10.6°C 42.0°F5.6°C 71% 2.0 mph SE3.2 kmh SE 6.0 mph9.7 kmh 29.73 in1006.8 mb 0.00 in0.0 mm 0.00 in0.0 mm 0.00 in0.0 mm
06:50 AM 51.1°F10.6°C 42.0°F5.6°C 71% 3.0 mph SE4.8 kmh SE 8.0 mph12.9 kmh 29.73 in1006.8 mb 0.00 in0.0 mm 0.00 in0.0 mm 0.00 in0.0 mm
06:45 AM 51.0°F10.6°C 41.9°F5.5°C 71% 1.0 mph SE1.6 kmh SE 8.0 mph12.9 kmh 29.73 in1006.8 mb 0.00 in0.0 mm 0.00 in0.0 mm 0.00 in0.0 mm
06:40 AM 51.1°F10.6°C 42.0°F5.6°C 71% 4.0 mph ESE6.4 kmh ESE 8.0 mph12.9 kmh 29.73 in1006.8 mb 0.00 in0.0 mm 0.00 in0.0 mm 0.00 in0.0 mm
06:35 AM 51.1°F10.6°C 42.0°F5.6°C 71% 2.0 mph SE3.2 kmh SE 8.0 mph12.9 kmh 29.73 in1006.8 mb 0.00 in0.0 mm 0.00 in0.0 mm 0.00 in0.0 mm
06:30 AM 51.1°F10.6°C 41.6°F5.3°C 70% Calm Calm 7.0 mph11.3 kmh 29.73 in1006.8 mb 0.00 in0.0 mm 0.00 in0.0 mm 0.00 in0.0 mm
06:25 AM 51.2°F10.7°C 41.7°F5.4°C 70% 2.0 mph SE3.2 kmh SE 5.0 mph8.0 kmh 29.73 in1006.8 mb 0.00 in0.0 mm 0.00 in0.0 mm 0.00 in0.0 mm
06:20 AM 51.2°F10.7°C 41.7°F5.4°C 70% Calm Calm 7.0 mph11.3 kmh 29.73 in1006.8 mb 0.00 in0.0 mm 0.00 in0.0 mm 0.00 in0.0 mm
06:15 AM 51.3°F10.7°C 41.8°F5.4°C 70% 3.0 mph SE4.8 kmh SE 5.0 mph8.0 kmh 29.72 in1006.4 mb 0.00 in0.0 mm 0.00 in0.0 mm 0.00 in0.0 mm
06:10 AM 51.3°F10.7°C 41.8°F5.4°C 70% Calm Calm 5.0 mph8.0 kmh 29.72 in1006.4 mb 0.00 in0.0 mm 0.00 in0.0 mm 0.00 in0.0 mm
06:05 AM 51.3°F10.7°C 41.4°F5.2°C 69% 1.0 mph SE1.6 kmh SE 5.0 mph8.0 kmh 29.73 in1006.8 mb 0.00 in0.0 mm 0.00 in0.0 mm 0.00 in0.0 mm
06:00 AM 51.4°F10.8°C 41.5°F5.3°C 69% 3.0 mph SE4.8 kmh SE 7.0 mph11.3 kmh 29.72 in1006.4 mb 0.00 in0.0 mm 0.00 in0.0 mm 0.00 in0.0 mm
05:55 AM 51.4°F10.8°C 41.5°F5.3°C 69% 4.0 mph SE6.4 kmh SE 5.0 mph8.0 kmh 29.72 in1006.4 mb 0.00 in0.0 mm 0.00 in0.0 mm 0.00 in0.0 mm
05:50 AM 51.4°F10.8°C 41.5°F5.3°C 69% 2.0 mph SE3.2 kmh SE 5.0 mph8.0 kmh 29.72 in1006.4 mb 0.00 in0.0 mm 0.00 in0.0 mm 0.00 in0.0 mm
05:45 AM 51.5°F10.8°C 41.6°F5.3°C 69% 4.0 mph SE6.4 kmh SE 5.0 mph8.0 kmh 29.72 in1006.4 mb 0.00 in0.0 mm 0.00 in0.0 mm 0.00 in0.0 mm
05:40 AM 51.5°F10.8°C 41.6°F5.3°C 69% 3.0 mph SE4.8 kmh SE 9.0 mph14.5 kmh 29.71 in1006.1 mb 0.00 in0.0 mm 0.00 in0.0 mm 0.00 in0.0 mm
05:35 AM 51.6°F10.9°C 41.7°F5.4°C 69% 3.0 mph SE4.8 kmh SE 9.0 mph14.5 kmh 29.71 in1006.1 mb 0.00 in0.0 mm 0.00 in0.0 mm 0.00 in0.0 mm
05:30 AM 51.6°F10.9°C 41.3°F5.2°C 68% 2.0 mph SE3.2 kmh SE 8.0 mph12.9 kmh 29.71 in1006.1 mb 0.00 in0.0 mm 0.00 in0.0 mm 0.00 in0.0 mm
05:25 AM 51.6°F10.9°C 41.3°F5.2°C 68% 5.0 mph SE8.0 kmh SE 8.0 mph12.9 kmh 29.71 in1006.1 mb 0.00 in0.0 mm 0.00 in0.0 mm 0.00 in0.0 mm
05:20 AM 51.6°F10.9°C 41.3°F5.2°C 68% 7.0 mph SE11.3 kmh SE 8.0 mph12.9 kmh 29.72 in1006.4 mb 0.00 in0.0 mm 0.00 in0.0 mm 0.00 in0.0 mm
05:15 AM 51.7°F10.9°C 41.4°F5.2°C 68% 2.0 mph SE3.2 kmh SE 7.0 mph11.3 kmh 29.72 in1006.4 mb 0.00 in0.0 mm 0.00 in0.0 mm 0.00 in0.0 mm
05:10 AM 51.8°F11.0°C 41.5°F5.3°C 68% 5.0 mph ESE8.0 kmh ESE 7.0 mph11.3 kmh 29.72 in1006.4 mb 0.00 in0.0 mm 0.00 in0.0 mm 0.00 in0.0 mm
05:05 AM 51.8°F11.0°C 41.1°F5.1°C 67% 2.0 mph SE3.2 kmh SE 7.0 mph11.3 kmh 29.72 in1006.4 mb 0.00 in0.0 mm 0.00 in0.0 mm 0.00 in0.0 mm
05:00 AM 51.8°F11.0°C 41.5°F5.3°C 68% 2.0 mph SE3.2 kmh SE 4.0 mph6.4 kmh 29.72 in1006.4 mb 0.00 in0.0 mm 0.00 in0.0 mm 0.00 in0.0 mm
04:55 AM 51.8°F11.0°C 41.5°F5.3°C 68% 4.0 mph SE6.4 kmh SE 8.0 mph12.9 kmh 29.72 in1006.4 mb 0.00 in0.0 mm 0.00 in0.0 mm 0.00 in0.0 mm
04:50 AM 51.8°F11.0°C 41.1°F5.1°C 67% 2.0 mph ESE3.2 kmh ESE 8.0 mph12.9 kmh 29.72 in1006.4 mb 0.00 in0.0 mm 0.00 in0.0 mm 0.00 in0.0 mm
04:45 AM 51.9°F11.1°C 41.2°F5.1°C 67% 3.0 mph SE4.8 kmh SE 5.0 mph8.0 kmh 29.72 in1006.4 mb 0.00 in0.0 mm 0.00 in0.0 mm 0.00 in0.0 mm
04:40 AM 51.9°F11.1°C 41.2°F5.1°C 67% 4.0 mph ESE6.4 kmh ESE 7.0 mph11.3 kmh 29.72 in1006.4 mb 0.00 in0.0 mm 0.00 in0.0 mm 0.00 in0.0 mm
04:35 AM 51.9°F11.1°C 41.2°F5.1°C 67% 4.0 mph ESE6.4 kmh ESE 7.0 mph11.3 kmh 29.72 in1006.4 mb 0.00 in0.0 mm 0.00 in0.0 mm 0.00 in0.0 mm
04:30 AM 51.8°F11.0°C 41.1°F5.1°C 67% Calm Calm 5.0 mph8.0 kmh 29.72 in1006.4 mb 0.00 in0.0 mm 0.00 in0.0 mm 0.00 in0.0 mm
04:25 AM 51.8°F11.0°C 41.1°F5.1°C 67% 3.0 mph ESE4.8 kmh ESE 7.0 mph11.3 kmh 29.72 in1006.4 mb 0.00 in0.0 mm 0.00 in0.0 mm 0.00 in0.0 mm
04:20 AM 51.8°F11.0°C 41.1°F5.1°C 67% 4.0 mph SE6.4 kmh SE 6.0 mph9.7 kmh 29.72 in1006.4 mb 0.00 in0.0 mm 0.00 in0.0 mm 0.00 in0.0 mm
04:15 AM 51.7°F10.9°C 41.0°F5.0°C 67% 3.0 mph SE4.8 kmh SE 5.0 mph8.0 kmh 29.73 in1006.8 mb 0.00 in0.0 mm 0.00 in0.0 mm 0.00 in0.0 mm
04:10 AM 51.7°F10.9°C 41.4°F5.2°C 68% 1.0 mph SE1.6 kmh SE 5.0 mph8.0 kmh 29.73 in1006.8 mb 0.00 in0.0 mm 0.00 in0.0 mm 0.00 in0.0 mm
04:05 AM 51.7°F10.9°C 41.4°F5.2°C 68% 3.0 mph SE4.8 kmh SE 5.0 mph8.0 kmh 29.73 in1006.8 mb 0.00 in0.0 mm 0.00 in0.0 mm 0.00 in0.0 mm
04:00 AM 51.7°F10.9°C 41.4°F5.2°C 68% 3.0 mph SE4.8 kmh SE 7.0 mph11.3 kmh 29.74 in1007.1 mb 0.00 in0.0 mm 0.00 in0.0 mm 0.00 in0.0 mm
03:55 AM 51.7°F10.9°C 41.0°F5.0°C 67% 4.0 mph SE6.4 kmh SE 5.0 mph8.0 kmh 29.74 in1007.1 mb 0.00 in0.0 mm 0.00 in0.0 mm 0.00 in0.0 mm
03:50 AM 51.8°F11.0°C 41.1°F5.1°C 67% 2.0 mph SE3.2 kmh SE 6.0 mph9.7 kmh 29.74 in1007.1 mb 0.00 in0.0 mm 0.00 in0.0 mm 0.00 in0.0 mm
03:45 AM 51.9°F11.1°C 41.2°F5.1°C 67% Calm Calm 5.0 mph8.0 kmh 29.74 in1007.1 mb 0.00 in0.0 mm 0.00 in0.0 mm 0.00 in0.0 mm
03:40 AM 52.1°F11.2°C 41.4°F5.2°C 67% 2.0 mph SE3.2 kmh SE 5.0 mph8.0 kmh 29.74 in1007.1 mb 0.00 in0.0 mm 0.00 in0.0 mm 0.00 in0.0 mm
03:35 AM 52.1°F11.2°C 41.0°F5.0°C 66% 2.0 mph SE3.2 kmh SE 6.0 mph9.7 kmh 29.74 in1007.1 mb 0.00 in0.0 mm 0.00 in0.0 mm 0.00 in0.0 mm
03:30 AM 52.2°F11.2°C 41.1°F5.1°C 66% 3.0 mph SE4.8 kmh SE 7.0 mph11.3 kmh 29.74 in1007.1 mb 0.00 in0.0 mm 0.00 in0.0 mm 0.00 in0.0 mm
03:25 AM 52.2°F11.2°C 41.1°F5.1°C 66% 2.0 mph SE3.2 kmh SE 8.0 mph12.9 kmh 29.74 in1007.1 mb 0.00 in0.0 mm 0.00 in0.0 mm 0.00 in0.0 mm
03:20 AM 52.2°F11.2°C 41.1°F5.1°C 66% 1.0 mph SE1.6 kmh SE 7.0 mph11.3 kmh 29.75 in1007.5 mb 0.00 in0.0 mm 0.00 in0.0 mm 0.00 in0.0 mm
03:15 AM 52.2°F11.2°C 41.1°F5.1°C 66% 1.0 mph SE1.6 kmh SE 5.0 mph8.0 kmh 29.75 in1007.5 mb 0.00 in0.0 mm 0.00 in0.0 mm 0.00 in0.0 mm
03:10 AM 52.3°F11.3°C 40.8°F4.9°C 65% 4.0 mph SE6.4 kmh SE 6.0 mph9.7 kmh 29.75 in1007.5 mb 0.00 in0.0 mm 0.00 in0.0 mm 0.00 in0.0 mm
03:05 AM 52.4°F11.3°C 40.9°F4.9°C 65% 3.0 mph SE4.8 kmh SE 6.0 mph9.7 kmh 29.76 in1007.8 mb 0.00 in0.0 mm 0.00 in0.0 mm 0.00 in0.0 mm
03:00 AM 52.5°F11.4°C 41.0°F5.0°C 65% Calm Calm 4.0 mph6.4 kmh 29.76 in1007.8 mb 0.00 in0.0 mm 0.00 in0.0 mm 0.00 in0.0 mm
02:55 AM 52.5°F11.4°C 41.0°F5.0°C 65% 4.0 mph SE6.4 kmh SE 8.0 mph12.9 kmh 29.76 in1007.8 mb 0.00 in0.0 mm 0.00 in0.0 mm 0.00 in0.0 mm
02:50 AM 52.5°F11.4°C 41.0°F5.0°C 65% 3.0 mph SE4.8 kmh SE 8.0 mph12.9 kmh 29.76 in1007.8 mb 0.00 in0.0 mm 0.00 in0.0 mm 0.00 in0.0 mm
02:45 AM 52.6°F11.4°C 41.1°F5.1°C 65% 2.0 mph SE3.2 kmh SE 6.0 mph9.7 kmh 29.76 in1007.8 mb 0.00 in0.0 mm 0.00 in0.0 mm 0.00 in0.0 mm
02:40 AM 52.6°F11.4°C 41.1°F5.1°C 65% 4.0 mph SE6.4 kmh SE 5.0 mph8.0 kmh 29.76 in1007.8 mb 0.00 in0.0 mm 0.00 in0.0 mm 0.00 in0.0 mm
02:35 AM 52.7°F11.5°C 41.2°F5.1°C 65% 5.0 mph SE8.0 kmh SE 6.0 mph9.7 kmh 29.76 in1007.8 mb 0.00 in0.0 mm 0.00 in0.0 mm 0.00 in0.0 mm
02:30 AM 52.8°F11.6°C 40.9°F4.9°C 64% Calm Calm 6.0 mph9.7 kmh 29.76 in1007.8 mb 0.00 in0.0 mm 0.00 in0.0 mm 0.00 in0.0 mm
02:25 AM 52.8°F11.6°C 40.9°F4.9°C 64% 1.0 mph SE1.6 kmh SE 6.0 mph9.7 kmh 29.76 in1007.8 mb 0.00 in0.0 mm 0.00 in0.0 mm 0.00 in0.0 mm
02:20 AM 52.9°F11.6°C 41.0°F5.0°C 64% 2.0 mph SE3.2 kmh SE 5.0 mph8.0 kmh 29.76 in1007.8 mb 0.00 in0.0 mm 0.00 in0.0 mm 0.00 in0.0 mm
02:15 AM 53.0°F11.7°C 41.1°F5.1°C 64% 1.0 mph SE1.6 kmh SE 8.0 mph12.9 kmh 29.76 in1007.8 mb 0.00 in0.0 mm 0.00 in0.0 mm 0.00 in0.0 mm
02:10 AM 53.1°F11.7°C 41.2°F5.1°C 64% 6.0 mph SE9.7 kmh SE 7.0 mph11.3 kmh 29.76 in1007.8 mb 0.00 in0.0 mm 0.00 in0.0 mm 0.00 in0.0 mm
02:05 AM 53.2°F11.8°C 40.9°F4.9°C 63% 3.0 mph SE4.8 kmh SE 6.0 mph9.7 kmh 29.76 in1007.8 mb 0.00 in0.0 mm 0.00 in0.0 mm 0.00 in0.0 mm
02:00 AM 53.3°F11.8°C 41.0°F5.0°C 63% Calm Calm 4.0 mph6.4 kmh 29.76 in1007.8 mb 0.00 in0.0 mm 0.00 in0.0 mm 0.00 in0.0 mm
01:55 AM 53.4°F11.9°C 41.1°F5.1°C 63% Calm Calm 5.0 mph8.0 kmh 29.76 in1007.8 mb 0.00 in0.0 mm 0.00 in0.0 mm 0.00 in0.0 mm
01:50 AM 53.5°F11.9°C 41.2°F5.1°C 63% 2.0 mph SSE3.2 kmh SSE 5.0 mph8.0 kmh 29.76 in1007.8 mb 0.00 in0.0 mm 0.00 in0.0 mm 0.00 in0.0 mm
01:45 AM 53.5°F11.9°C 41.2°F5.1°C 63% 2.0 mph SE3.2 kmh SE 5.0 mph8.0 kmh 29.76 in1007.8 mb 0.00 in0.0 mm 0.00 in0.0 mm 0.00 in0.0 mm
01:40 AM 53.5°F11.9°C 41.2°F5.1°C 63% Calm Calm 5.0 mph8.0 kmh 29.76 in1007.8 mb 0.00 in0.0 mm 0.00 in0.0 mm 0.00 in0.0 mm
01:35 AM 53.4°F11.9°C 41.1°F5.1°C 63% 3.0 mph SE4.8 kmh SE 7.0 mph11.3 kmh 29.76 in1007.8 mb 0.00 in0.0 mm 0.00 in0.0 mm 0.00 in0.0 mm
01:30 AM 53.3°F11.8°C 41.0°F5.0°C 63% 2.0 mph SE3.2 kmh SE 6.0 mph9.7 kmh 29.76 in1007.8 mb 0.00 in0.0 mm 0.00 in0.0 mm 0.00 in0.0 mm
01:25 AM 53.2°F11.8°C 40.9°F4.9°C 63% 2.0 mph SE3.2 kmh SE 7.0 mph11.3 kmh 29.76 in1007.8 mb 0.00 in0.0 mm 0.00 in0.0 mm 0.00 in0.0 mm
01:20 AM 53.0°F11.7°C 40.7°F4.8°C 63% Calm Calm 6.0 mph9.7 kmh 29.76 in1007.8 mb 0.00 in0.0 mm 0.00 in0.0 mm 0.00 in0.0 mm
01:15 AM 52.9°F11.6°C 40.6°F4.8°C 63% 3.0 mph SE4.8 kmh SE 4.0 mph6.4 kmh 29.77 in1008.1 mb 0.00 in0.0 mm 0.00 in0.0 mm 0.00 in0.0 mm
01:10 AM 52.8°F11.6°C 40.5°F4.7°C 63% 3.0 mph SE4.8 kmh SE 6.0 mph9.7 kmh 29.77 in1008.1 mb 0.00 in0.0 mm 0.00 in0.0 mm 0.00 in0.0 mm
01:05 AM 52.6°F11.4°C 40.3°F4.6°C 63% 3.0 mph SE4.8 kmh SE 5.0 mph8.0 kmh 29.77 in1008.1 mb 0.00 in0.0 mm 0.00 in0.0 mm 0.00 in0.0 mm
01:00 AM 52.5°F11.4°C 40.2°F4.6°C 63% 3.0 mph SE4.8 kmh SE 7.0 mph11.3 kmh 29.77 in1008.1 mb 0.00 in0.0 mm 0.00 in0.0 mm 0.00 in0.0 mm
12:55 AM 52.4°F11.3°C 40.1°F4.5°C 63% 1.0 mph SE1.6 kmh SE 7.0 mph11.3 kmh 29.78 in1008.5 mb 0.00 in0.0 mm 0.00 in0.0 mm 0.00 in0.0 mm
12:50 AM 52.4°F11.3°C 40.1°F4.5°C 63% 2.0 mph SE3.2 kmh SE 4.0 mph6.4 kmh 29.78 in1008.5 mb 0.00 in0.0 mm 0.00 in0.0 mm 0.00 in0.0 mm
12:45 AM 52.5°F11.4°C 40.2°F4.6°C 63% Calm Calm 4.0 mph6.4 kmh 29.78 in1008.5 mb 0.00 in0.0 mm 0.00 in0.0 mm 0.00 in0.0 mm
12:40 AM 52.6°F11.4°C 39.9°F4.4°C 62% 3.0 mph SE4.8 kmh SE 5.0 mph8.0 kmh 29.79 in1008.8 mb 0.00 in0.0 mm 0.00 in0.0 mm 0.00 in0.0 mm
12:35 AM 52.7°F11.5°C 40.0°F4.4°C 62% 2.0 mph SE3.2 kmh SE 3.0 mph4.8 kmh 29.79 in1008.8 mb 0.00 in0.0 mm 0.00 in0.0 mm 0.00 in0.0 mm
12:30 AM 52.8°F11.6°C 39.7°F4.3°C 61% Calm Calm 3.0 mph4.8 kmh 29.79 in1008.8 mb 0.00 in0.0 mm 0.00 in0.0 mm 0.00 in0.0 mm
12:25 AM 52.8°F11.6°C 39.7°F4.3°C 61% 1.0 mph SE1.6 kmh SE 4.0 mph6.4 kmh 29.79 in1008.8 mb 0.00 in0.0 mm 0.00 in0.0 mm 0.00 in0.0 mm
12:20 AM 53.0°F11.7°C 39.9°F4.4°C 61% 2.0 mph SE3.2 kmh SE 4.0 mph6.4 kmh 29.79 in1008.8 mb 0.00 in0.0 mm 0.00 in0.0 mm 0.00 in0.0 mm
12:15 AM 53.1°F11.7°C 39.5°F4.2°C 60% 1.0 mph SE1.6 kmh SE 3.0 mph4.8 kmh 29.79 in1008.8 mb 0.00 in0.0 mm 0.00 in0.0 mm 0.00 in0.0 mm
12:10 AM 53.2°F11.8°C 39.6°F4.2°C 60% Calm Calm 3.0 mph4.8 kmh 29.79 in1008.8 mb 0.00 in0.0 mm 0.00 in0.0 mm 0.00 in0.0 mm
12:05 AM 53.3°F11.8°C 39.7°F4.3°C 60% Calm Calm 4.0 mph6.4 kmh 29.80 in1009.1 mb 0.00 in0.0 mm 0.00 in0.0 mm 0.00 in0.0 mm
12:00 AM 53.5°F11.9°C 39.5°F4.2°C 59% 1.0 mph SE1.6 kmh SE 6.0 mph9.7 kmh 29.80 in1009.1 mb 0.00 in0.0 mm 0.00 in0.0 mm 0.00 in0.0 mm